sensor_id;sensor_type;location;lat;lon;timestamp;P1;durP1;ratioP1;P2;durP2;ratioP2
9392;SDS011;4736;52.508;13.422;2022-12-07T00:00:36;16.23;;;11.80;;
9392;SDS011;4736;52.508;13.422;2022-12-07T00:03:41;16.03;;;12.03;;
9392;SDS011;4736;52.508;13.422;2022-12-07T00:06:46;14.17;;;11.60;;
9392;SDS011;4736;52.508;13.422;2022-12-07T00:09:52;15.63;;;11.67;;
9392;SDS011;4736;52.508;13.422;2022-12-07T00:12:55;15.87;;;12.17;;
9392;SDS011;4736;52.508;13.422;2022-12-07T00:15:59;13.53;;;12.07;;
9392;SDS011;4736;52.508;13.422;2022-12-07T00:19:04;15.00;;;11.77;;
9392;SDS011;4736;52.508;13.422;2022-12-07T00:22:07;11.90;;;10.60;;
9392;SDS011;4736;52.508;13.422;2022-12-07T00:25:10;12.80;;;11.40;;
9392;SDS011;4736;52.508;13.422;2022-12-07T00:28:13;12.30;;;11.20;;
9392;SDS011;4736;52.508;13.422;2022-12-07T00:31:17;12.80;;;11.50;;
9392;SDS011;4736;52.508;13.422;2022-12-07T00:34:22;12.83;;;11.47;;
9392;SDS011;4736;52.508;13.422;2022-12-07T00:37:25;12.30;;;11.07;;
9392;SDS011;4736;52.508;13.422;2022-12-07T00:40:28;11.67;;;10.57;;
9392;SDS011;4736;52.508;13.422;2022-12-07T00:43:31;12.00;;;10.93;;
9392;SDS011;4736;52.508;13.422;2022-12-07T00:46:34;11.70;;;10.60;;
9392;SDS011;4736;52.508;13.422;2022-12-07T00:49:39;11.63;;;10.63;;
9392;SDS011;4736;52.508;13.422;2022-12-07T00:52:41;12.53;;;11.33;;
9392;SDS011;4736;52.508;13.422;2022-12-07T00:55:45;11.73;;;10.73;;
9392;SDS011;4736;52.508;13.422;2022-12-07T00:58:51;12.57;;;11.47;;
9392;SDS011;4736;52.508;13.422;2022-12-07T01:01:55;12.23;;;11.13;;
9392;SDS011;4736;52.508;13.422;2022-12-07T01:05:00;12.17;;;11.07;;
9392;SDS011;4736;52.508;13.422;2022-12-07T01:08:03;11.80;;;10.80;;
9392;SDS011;4736;52.508;13.422;2022-12-07T01:11:07;11.13;;;10.23;;
9392;SDS011;4736;52.508;13.422;2022-12-07T01:14:11;12.00;;;11.00;;
9392;SDS011;4736;52.508;13.422;2022-12-07T01:17:14;11.53;;;10.53;;
9392;SDS011;4736;52.508;13.422;2022-12-07T01:20:19;10.90;;;9.97;;
9392;SDS011;4736;52.508;13.422;2022-12-07T01:23:22;10.70;;;9.70;;
9392;SDS011;4736;52.508;13.422;2022-12-07T01:26:25;12.33;;;10.60;;
9392;SDS011;4736;52.508;13.422;2022-12-07T01:29:28;11.80;;;10.60;;
9392;SDS011;4736;52.508;13.422;2022-12-07T01:32:31;11.30;;;10.30;;
9392;SDS011;4736;52.508;13.422;2022-12-07T01:35:36;10.97;;;10.17;;
9392;SDS011;4736;52.508;13.422;2022-12-07T01:38:39;10.73;;;9.73;;
9392;SDS011;4736;52.508;13.422;2022-12-07T01:41:42;10.93;;;10.03;;
9392;SDS011;4736;52.508;13.422;2022-12-07T01:48:22;10.53;;;9.63;;
9392;SDS011;4736;52.508;13.422;2022-12-07T01:51:30;9.77;;;8.93;;
9392;SDS011;4736;52.508;13.422;2022-12-07T01:54:33;9.57;;;8.87;;
9392;SDS011;4736;52.508;13.422;2022-12-07T01:57:38;9.33;;;8.57;;
9392;SDS011;4736;52.508;13.422;2022-12-07T02:00:44;10.00;;;9.00;;
9392;SDS011;4736;52.508;13.422;2022-12-07T02:03:47;9.77;;;9.07;;
9392;SDS011;4736;52.508;13.422;2022-12-07T02:06:52;9.77;;;8.97;;
9392;SDS011;4736;52.508;13.422;2022-12-07T02:09:57;9.00;;;8.37;;
9392;SDS011;4736;52.508;13.422;2022-12-07T02:13:01;9.13;;;8.30;;
9392;SDS011;4736;52.508;13.422;2022-12-07T02:16:11;8.43;;;7.93;;
9392;SDS011;4736;52.508;13.422;2022-12-07T02:23:22;8.40;;;7.80;;
9392;SDS011;4736;52.508;13.422;2022-12-07T02:30:28;8.83;;;8.17;;
9392;SDS011;4736;52.508;13.422;2022-12-07T02:33:36;9.67;;;8.80;;
9392;SDS011;4736;52.508;13.422;2022-12-07T02:36:43;9.47;;;8.67;;
9392;SDS011;4736;52.508;13.422;2022-12-07T02:39:53;9.13;;;8.47;;
9392;SDS011;4736;52.508;13.422;2022-12-07T02:43:02;9.23;;;8.63;;
9392;SDS011;4736;52.508;13.422;2022-12-07T02:46:21;9.50;;;8.80;;
9392;SDS011;4736;52.508;13.422;2022-12-07T02:49:26;9.83;;;8.93;;
9392;SDS011;4736;52.508;13.422;2022-12-07T02:52:30;10.30;;;9.50;;
9392;SDS011;4736;52.508;13.422;2022-12-07T02:55:35;9.73;;;9.03;;
9392;SDS011;4736;52.508;13.422;2022-12-07T02:58:46;11.03;;;10.17;;
9392;SDS011;4736;52.508;13.422;2022-12-07T03:02:03;10.27;;;9.37;;
9392;SDS011;4736;52.508;13.422;2022-12-07T03:05:27;10.90;;;9.97;;
9392;SDS011;4736;52.508;13.422;2022-12-07T03:08:44;11.27;;;9.63;;
9392;SDS011;4736;52.508;13.422;2022-12-07T03:11:55;11.83;;;10.90;;
9392;SDS011;4736;52.508;13.422;2022-12-07T03:15:07;10.70;;;9.90;;
9392;SDS011;4736;52.508;13.422;2022-12-07T03:18:16;11.93;;;10.77;;
9392;SDS011;4736;52.508;13.422;2022-12-07T03:21:24;9.57;;;8.77;;
9392;SDS011;4736;52.508;13.422;2022-12-07T03:24:31;11.03;;;10.03;;
9392;SDS011;4736;52.508;13.422;2022-12-07T03:27:39;11.10;;;10.07;;
9392;SDS011;4736;52.508;13.422;2022-12-07T03:30:47;10.67;;;9.67;;
9392;SDS011;4736;52.508;13.422;2022-12-07T03:33:57;10.63;;;9.73;;
9392;SDS011;4736;52.508;13.422;2022-12-07T03:37:08;11.17;;;10.10;;
9392;SDS011;4736;52.508;13.422;2022-12-07T03:40:16;11.17;;;9.97;;
9392;SDS011;4736;52.508;13.422;2022-12-07T03:43:25;12.53;;;10.93;;
9392;SDS011;4736;52.508;13.422;2022-12-07T03:46:32;11.20;;;10.13;;
9392;SDS011;4736;52.508;13.422;2022-12-07T03:49:46;11.23;;;10.20;;
9392;SDS011;4736;52.508;13.422;2022-12-07T03:52:54;11.63;;;10.50;;
9392;SDS011;4736;52.508;13.422;2022-12-07T03:56:00;12.13;;;10.60;;
9392;SDS011;4736;52.508;13.422;2022-12-07T03:59:04;12.10;;;10.93;;
9392;SDS011;4736;52.508;13.422;2022-12-07T04:02:09;11.03;;;9.97;;
9392;SDS011;4736;52.508;13.422;2022-12-07T04:05:16;11.50;;;10.43;;
9392;SDS011;4736;52.508;13.422;2022-12-07T04:08:19;11.90;;;10.80;;
9392;SDS011;4736;52.508;13.422;2022-12-07T04:11:22;12.90;;;11.47;;
9392;SDS011;4736;52.508;13.422;2022-12-07T04:14:25;12.67;;;11.37;;
9392;SDS011;4736;52.508;13.422;2022-12-07T04:17:28;12.40;;;11.20;;
9392;SDS011;4736;52.508;13.422;2022-12-07T04:20:33;15.80;;;12.17;;
9392;SDS011;4736;52.508;13.422;2022-12-07T04:23:36;13.97;;;12.57;;
9392;SDS011;4736;52.508;13.422;2022-12-07T04:26:39;13.77;;;11.77;;
9392;SDS011;4736;52.508;13.422;2022-12-07T04:29:42;14.33;;;12.83;;
9392;SDS011;4736;52.508;13.422;2022-12-07T04:32:45;17.47;;;13.87;;
9392;SDS011;4736;52.508;13.422;2022-12-07T04:35:49;16.47;;;14.23;;
9392;SDS011;4736;52.508;13.422;2022-12-07T04:38:52;19.33;;;13.70;;
9392;SDS011;4736;52.508;13.422;2022-12-07T04:41:56;16.73;;;14.37;;
9392;SDS011;4736;52.508;13.422;2022-12-07T04:45:00;20.50;;;16.23;;
9392;SDS011;4736;52.508;13.422;2022-12-07T04:48:03;21.50;;;16.03;;
9392;SDS011;4736;52.508;13.422;2022-12-07T04:51:08;24.00;;;17.23;;
9392;SDS011;4736;52.508;13.422;2022-12-07T04:54:11;20.07;;;15.03;;
9392;SDS011;4736;52.508;13.422;2022-12-07T04:57:14;23.77;;;17.27;;
9392;SDS011;4736;52.508;13.422;2022-12-07T05:00:17;24.97;;;17.27;;
9392;SDS011;4736;52.508;13.422;2022-12-07T05:03:21;21.60;;;17.00;;
9392;SDS011;4736;52.508;13.422;2022-12-07T05:06:25;27.00;;;17.97;;
9392;SDS011;4736;52.508;13.422;2022-12-07T05:09:28;25.90;;;18.17;;
9392;SDS011;4736;52.508;13.422;2022-12-07T05:12:31;24.63;;;18.23;;
9392;SDS011;4736;52.508;13.422;2022-12-07T05:15:34;29.87;;;18.97;;
9392;SDS011;4736;52.508;13.422;2022-12-07T05:18:37;29.13;;;19.13;;
9392;SDS011;4736;52.508;13.422;2022-12-07T05:21:41;28.70;;;19.97;;
9392;SDS011;4736;52.508;13.422;2022-12-07T05:24:44;29.83;;;19.87;;
9392;SDS011;4736;52.508;13.422;2022-12-07T05:27:47;28.97;;;19.00;;
9392;SDS011;4736;52.508;13.422;2022-12-07T05:30:50;25.70;;;19.07;;
9392;SDS011;4736;52.508;13.422;2022-12-07T05:33:59;31.27;;;20.07;;
9392;SDS011;4736;52.508;13.422;2022-12-07T05:37:04;29.70;;;19.77;;
9392;SDS011;4736;52.508;13.422;2022-12-07T05:40:07;33.27;;;21.23;;
9392;SDS011;4736;52.508;13.422;2022-12-07T05:43:11;32.27;;;22.20;;
9392;SDS011;4736;52.508;13.422;2022-12-07T05:46:14;34.37;;;21.73;;
9392;SDS011;4736;52.508;13.422;2022-12-07T05:49:17;36.93;;;22.70;;
9392;SDS011;4736;52.508;13.422;2022-12-07T05:52:21;32.40;;;21.87;;
9392;SDS011;4736;52.508;13.422;2022-12-07T05:55:25;37.00;;;22.50;;
9392;SDS011;4736;52.508;13.422;2022-12-07T05:58:27;37.07;;;22.63;;
9392;SDS011;4736;52.508;13.422;2022-12-07T06:01:48;41.20;;;23.73;;
9392;SDS011;4736;52.508;13.422;2022-12-07T06:04:51;36.43;;;22.17;;
9392;SDS011;4736;52.508;13.422;2022-12-07T06:07:56;33.30;;;22.80;;
9392;SDS011;4736;52.508;13.422;2022-12-07T06:11:05;37.73;;;23.43;;
9392;SDS011;4736;52.508;13.422;2022-12-07T06:14:26;35.83;;;22.90;;
9392;SDS011;4736;52.508;13.422;2022-12-07T06:17:29;40.50;;;24.67;;
9392;SDS011;4736;52.508;13.422;2022-12-07T06:20:32;38.40;;;24.50;;
9392;SDS011;4736;52.508;13.422;2022-12-07T06:23:36;42.73;;;24.33;;
9392;SDS011;4736;52.508;13.422;2022-12-07T06:26:39;41.23;;;23.97;;
9392;SDS011;4736;52.508;13.422;2022-12-07T06:29:42;38.37;;;22.70;;
9392;SDS011;4736;52.508;13.422;2022-12-07T06:32:45;36.63;;;23.30;;
9392;SDS011;4736;52.508;13.422;2022-12-07T06:35:48;41.17;;;23.03;;
9392;SDS011;4736;52.508;13.422;2022-12-07T06:38:52;38.07;;;22.90;;
9392;SDS011;4736;52.508;13.422;2022-12-07T06:41:55;35.57;;;21.33;;
9392;SDS011;4736;52.508;13.422;2022-12-07T06:44:59;34.83;;;21.73;;
9392;SDS011;4736;52.508;13.422;2022-12-07T06:48:02;32.03;;;20.23;;
9392;SDS011;4736;52.508;13.422;2022-12-07T06:51:05;32.33;;;21.77;;
9392;SDS011;4736;52.508;13.422;2022-12-07T06:54:09;32.53;;;22.30;;
9392;SDS011;4736;52.508;13.422;2022-12-07T06:57:14;33.40;;;21.27;;
9392;SDS011;4736;52.508;13.422;2022-12-07T07:00:17;32.87;;;22.00;;
9392;SDS011;4736;52.508;13.422;2022-12-07T07:03:22;37.40;;;23.57;;
9392;SDS011;4736;52.508;13.422;2022-12-07T07:06:25;32.47;;;22.27;;
9392;SDS011;4736;52.508;13.422;2022-12-07T07:09:30;36.13;;;22.73;;
9392;SDS011;4736;52.508;13.422;2022-12-07T07:12:32;34.83;;;22.50;;
9392;SDS011;4736;52.508;13.422;2022-12-07T07:15:37;35.27;;;22.40;;
9392;SDS011;4736;52.508;13.422;2022-12-07T07:18:41;35.80;;;22.30;;
9392;SDS011;4736;52.508;13.422;2022-12-07T07:21:43;33.77;;;22.63;;
9392;SDS011;4736;52.508;13.422;2022-12-07T07:24:48;32.47;;;22.03;;
9392;SDS011;4736;52.508;13.422;2022-12-07T07:27:51;30.97;;;21.60;;
9392;SDS011;4736;52.508;13.422;2022-12-07T07:30:54;30.57;;;21.67;;
9392;SDS011;4736;52.508;13.422;2022-12-07T07:33:57;32.97;;;21.90;;
9392;SDS011;4736;52.508;13.422;2022-12-07T07:37:00;29.47;;;19.17;;
9392;SDS011;4736;52.508;13.422;2022-12-07T07:40:05;30.17;;;20.20;;
9392;SDS011;4736;52.508;13.422;2022-12-07T07:43:09;25.17;;;18.53;;
9392;SDS011;4736;52.508;13.422;2022-12-07T07:46:11;23.77;;;17.27;;
9392;SDS011;4736;52.508;13.422;2022-12-07T07:49:14;21.17;;;16.57;;
9392;SDS011;4736;52.508;13.422;2022-12-07T07:52:17;25.23;;;16.47;;
9392;SDS011;4736;52.508;13.422;2022-12-07T07:55:22;18.30;;;15.60;;
9392;SDS011;4736;52.508;13.422;2022-12-07T07:58:25;21.83;;;15.13;;
9392;SDS011;4736;52.508;13.422;2022-12-07T08:01:28;17.47;;;15.23;;
9392;SDS011;4736;52.508;13.422;2022-12-07T08:04:31;18.03;;;13.87;;
9392;SDS011;4736;52.508;13.422;2022-12-07T08:07:34;20.33;;;13.60;;
9392;SDS011;4736;52.508;13.422;2022-12-07T08:10:38;14.97;;;13.07;;
9392;SDS011;4736;52.508;13.422;2022-12-07T08:13:41;13.17;;;11.77;;
9392;SDS011;4736;52.508;13.422;2022-12-07T08:16:47;14.80;;;12.70;;
9392;SDS011;4736;52.508;13.422;2022-12-07T08:19:49;12.87;;;11.53;;
9392;SDS011;4736;52.508;13.422;2022-12-07T08:22:52;12.60;;;11.60;;
9392;SDS011;4736;52.508;13.422;2022-12-07T08:26:00;12.57;;;11.30;;
9392;SDS011;4736;52.508;13.422;2022-12-07T08:29:04;13.20;;;11.40;;
9392;SDS011;4736;52.508;13.422;2022-12-07T08:32:07;11.23;;;10.17;;
9392;SDS011;4736;52.508;13.422;2022-12-07T08:35:10;11.13;;;10.17;;
9392;SDS011;4736;52.508;13.422;2022-12-07T08:38:14;10.53;;;9.53;;
9392;SDS011;4736;52.508;13.422;2022-12-07T08:41:18;9.63;;;8.73;;
9392;SDS011;4736;52.508;13.422;2022-12-07T08:44:21;9.17;;;8.47;;
9392;SDS011;4736;52.508;13.422;2022-12-07T08:47:24;9.77;;;8.17;;
9392;SDS011;4736;52.508;13.422;2022-12-07T08:50:27;7.43;;;6.93;;
9392;SDS011;4736;52.508;13.422;2022-12-07T08:53:30;7.60;;;7.00;;
9392;SDS011;4736;52.508;13.422;2022-12-07T08:56:36;8.17;;;7.40;;
9392;SDS011;4736;52.508;13.422;2022-12-07T08:59:40;6.90;;;6.60;;
9392;SDS011;4736;52.508;13.422;2022-12-07T09:02:43;6.43;;;6.20;;
9392;SDS011;4736;52.508;13.422;2022-12-07T09:05:46;6.00;;;5.80;;
9392;SDS011;4736;52.508;13.422;2022-12-07T09:08:50;5.00;;;4.90;;
9392;SDS011;4736;52.508;13.422;2022-12-07T09:11:57;5.20;;;4.90;;
9392;SDS011;4736;52.508;13.422;2022-12-07T09:15:00;5.70;;;5.40;;
9392;SDS011;4736;52.508;13.422;2022-12-07T09:18:03;5.23;;;5.07;;
9392;SDS011;4736;52.508;13.422;2022-12-07T09:21:06;5.03;;;4.93;;
9392;SDS011;4736;52.508;13.422;2022-12-07T09:24:11;4.57;;;4.47;;
9392;SDS011;4736;52.508;13.422;2022-12-07T09:27:15;4.53;;;4.43;;
9392;SDS011;4736;52.508;13.422;2022-12-07T09:30:19;4.77;;;4.67;;
9392;SDS011;4736;52.508;13.422;2022-12-07T09:33:22;5.07;;;4.77;;
9392;SDS011;4736;52.508;13.422;2022-12-07T09:36:26;4.97;;;4.70;;
9392;SDS011;4736;52.508;13.422;2022-12-07T09:39:29;5.33;;;5.13;;
9392;SDS011;4736;52.508;13.422;2022-12-07T09:42:34;5.10;;;5.00;;
9392;SDS011;4736;52.508;13.422;2022-12-07T09:45:40;5.40;;;5.20;;
9392;SDS011;4736;52.508;13.422;2022-12-07T09:48:49;5.17;;;5.07;;
9392;SDS011;4736;52.508;13.422;2022-12-07T09:51:59;5.27;;;5.07;;
9392;SDS011;4736;52.508;13.422;2022-12-07T09:55:07;5.80;;;5.53;;
9392;SDS011;4736;52.508;13.422;2022-12-07T09:58:16;4.77;;;4.67;;
9392;SDS011;4736;52.508;13.422;2022-12-07T10:01:22;5.20;;;5.10;;
9392;SDS011;4736;52.508;13.422;2022-12-07T10:04:25;5.13;;;5.03;;
9392;SDS011;4736;52.508;13.422;2022-12-07T10:07:30;4.83;;;4.73;;
9392;SDS011;4736;52.508;13.422;2022-12-07T10:10:34;4.90;;;4.80;;
9392;SDS011;4736;52.508;13.422;2022-12-07T10:13:41;4.90;;;4.80;;
9392;SDS011;4736;52.508;13.422;2022-12-07T10:16:46;4.63;;;4.53;;
9392;SDS011;4736;52.508;13.422;2022-12-07T10:19:49;4.37;;;4.27;;
9392;SDS011;4736;52.508;13.422;2022-12-07T10:22:56;4.93;;;4.73;;
9392;SDS011;4736;52.508;13.422;2022-12-07T10:26:12;4.40;;;4.30;;
9392;SDS011;4736;52.508;13.422;2022-12-07T10:29:28;5.23;;;5.10;;
9392;SDS011;4736;52.508;13.422;2022-12-07T10:32:33;4.23;;;4.17;;
9392;SDS011;4736;52.508;13.422;2022-12-07T10:35:37;5.10;;;4.90;;
9392;SDS011;4736;52.508;13.422;2022-12-07T10:38:47;4.80;;;4.70;;
9392;SDS011;4736;52.508;13.422;2022-12-07T10:41:54;5.33;;;5.03;;
9392;SDS011;4736;52.508;13.422;2022-12-07T10:45:08;5.27;;;4.97;;
9392;SDS011;4736;52.508;13.422;2022-12-07T10:48:17;5.43;;;5.17;;
9392;SDS011;4736;52.508;13.422;2022-12-07T10:51:26;5.13;;;5.03;;
9392;SDS011;4736;52.508;13.422;2022-12-07T10:54:41;5.90;;;5.40;;
9392;SDS011;4736;52.508;13.422;2022-12-07T10:57:56;6.03;;;5.83;;
9392;SDS011;4736;52.508;13.422;2022-12-07T11:01:10;6.17;;;5.73;;
9392;SDS011;4736;52.508;13.422;2022-12-07T11:04:24;6.53;;;6.13;;
9392;SDS011;4736;52.508;13.422;2022-12-07T11:07:38;6.60;;;6.30;;
9392;SDS011;4736;52.508;13.422;2022-12-07T11:10:58;6.53;;;6.33;;
9392;SDS011;4736;52.508;13.422;2022-12-07T11:14:10;6.67;;;6.27;;
9392;SDS011;4736;52.508;13.422;2022-12-07T11:17:26;6.97;;;6.50;;
9392;SDS011;4736;52.508;13.422;2022-12-07T11:20:39;6.90;;;6.40;;
9392;SDS011;4736;52.508;13.422;2022-12-07T11:23:48;6.67;;;6.33;;
9392;SDS011;4736;52.508;13.422;2022-12-07T11:26:58;6.57;;;6.17;;
9392;SDS011;4736;52.508;13.422;2022-12-07T11:30:13;6.33;;;6.03;;
9392;SDS011;4736;52.508;13.422;2022-12-07T11:33:25;6.33;;;5.93;;
9392;SDS011;4736;52.508;13.422;2022-12-07T11:36:37;7.13;;;6.73;;
9392;SDS011;4736;52.508;13.422;2022-12-07T11:39:44;6.40;;;6.10;;
9392;SDS011;4736;52.508;13.422;2022-12-07T11:42:52;7.67;;;7.27;;
9392;SDS011;4736;52.508;13.422;2022-12-07T11:46:03;7.07;;;6.77;;
9392;SDS011;4736;52.508;13.422;2022-12-07T11:49:12;7.47;;;6.90;;
9392;SDS011;4736;52.508;13.422;2022-12-07T11:52:22;7.07;;;6.77;;
9392;SDS011;4736;52.508;13.422;2022-12-07T11:55:31;6.80;;;6.50;;
9392;SDS011;4736;52.508;13.422;2022-12-07T11:58:45;7.97;;;7.00;;
9392;SDS011;4736;52.508;13.422;2022-12-07T12:01:53;7.57;;;6.80;;
9392;SDS011;4736;52.508;13.422;2022-12-07T12:05:02;7.40;;;6.70;;
9392;SDS011;4736;52.508;13.422;2022-12-07T12:08:14;7.40;;;6.90;;
9392;SDS011;4736;52.508;13.422;2022-12-07T12:11:46;7.07;;;6.50;;
9392;SDS011;4736;52.508;13.422;2022-12-07T12:15:22;7.77;;;6.80;;
9392;SDS011;4736;52.508;13.422;2022-12-07T12:18:40;6.30;;;5.90;;
9392;SDS011;4736;52.508;13.422;2022-12-07T12:21:56;6.73;;;6.43;;
9392;SDS011;4736;52.508;13.422;2022-12-07T12:25:05;7.33;;;6.93;;
9392;SDS011;4736;52.508;13.422;2022-12-07T12:28:20;6.97;;;6.17;;
9392;SDS011;4736;52.508;13.422;2022-12-07T12:31:34;6.37;;;5.97;;
9392;SDS011;4736;52.508;13.422;2022-12-07T12:34:41;6.87;;;5.90;;
9392;SDS011;4736;52.508;13.422;2022-12-07T12:45:18;6.63;;;6.10;;
9392;SDS011;4736;52.508;13.422;2022-12-07T12:48:27;6.67;;;6.07;;
9392;SDS011;4736;52.508;13.422;2022-12-07T12:51:35;5.20;;;5.00;;
9392;SDS011;4736;52.508;13.422;2022-12-07T12:54:56;5.37;;;4.93;;
9392;SDS011;4736;52.508;13.422;2022-12-07T13:01:41;5.90;;;5.57;;
9392;SDS011;4736;52.508;13.422;2022-12-07T13:07:58;7.90;;;5.17;;
9392;SDS011;4736;52.508;13.422;2022-12-07T13:11:15;6.03;;;5.53;;
9392;SDS011;4736;52.508;13.422;2022-12-07T13:14:41;5.53;;;5.07;;
9392;SDS011;4736;52.508;13.422;2022-12-07T13:17:54;5.03;;;4.83;;
9392;SDS011;4736;52.508;13.422;2022-12-07T13:21:01;9.83;;;5.37;;
9392;SDS011;4736;52.508;13.422;2022-12-07T13:24:06;5.53;;;5.17;;
9392;SDS011;4736;52.508;13.422;2022-12-07T13:27:14;5.40;;;5.00;;
9392;SDS011;4736;52.508;13.422;2022-12-07T13:30:19;8.73;;;5.17;;
9392;SDS011;4736;52.508;13.422;2022-12-07T13:33:23;5.20;;;4.90;;
9392;SDS011;4736;52.508;13.422;2022-12-07T13:36:31;5.07;;;4.87;;
9392;SDS011;4736;52.508;13.422;2022-12-07T13:39:44;5.73;;;4.90;;
9392;SDS011;4736;52.508;13.422;2022-12-07T13:42:56;5.00;;;4.77;;
9392;SDS011;4736;52.508;13.422;2022-12-07T13:46:01;5.87;;;5.43;;
9392;SDS011;4736;52.508;13.422;2022-12-07T13:49:16;5.50;;;5.10;;
9392;SDS011;4736;52.508;13.422;2022-12-07T13:52:23;5.20;;;4.80;;
9392;SDS011;4736;52.508;13.422;2022-12-07T13:55:28;5.27;;;5.10;;
9392;SDS011;4736;52.508;13.422;2022-12-07T13:58:31;5.53;;;5.10;;
9392;SDS011;4736;52.508;13.422;2022-12-07T14:01:37;8.30;;;5.83;;
9392;SDS011;4736;52.508;13.422;2022-12-07T14:04:40;5.73;;;5.23;;
9392;SDS011;4736;52.508;13.422;2022-12-07T14:07:48;5.00;;;4.80;;
9392;SDS011;4736;52.508;13.422;2022-12-07T14:10:55;5.90;;;5.03;;
9392;SDS011;4736;52.508;13.422;2022-12-07T14:14:00;4.97;;;4.70;;
9392;SDS011;4736;52.508;13.422;2022-12-07T14:17:11;6.23;;;5.83;;
9392;SDS011;4736;52.508;13.422;2022-12-07T14:20:30;5.63;;;4.90;;
9392;SDS011;4736;52.508;13.422;2022-12-07T14:23:35;5.07;;;4.77;;
9392;SDS011;4736;52.508;13.422;2022-12-07T14:26:39;5.40;;;4.80;;
9392;SDS011;4736;52.508;13.422;2022-12-07T14:29:42;5.00;;;4.50;;
9392;SDS011;4736;52.508;13.422;2022-12-07T14:32:46;6.67;;;5.03;;
9392;SDS011;4736;52.508;13.422;2022-12-07T14:35:53;5.73;;;5.20;;
9392;SDS011;4736;52.508;13.422;2022-12-07T14:38:56;5.70;;;4.93;;
9392;SDS011;4736;52.508;13.422;2022-12-07T14:42:00;6.30;;;5.13;;
9392;SDS011;4736;52.508;13.422;2022-12-07T14:45:03;5.40;;;5.00;;
9392;SDS011;4736;52.508;13.422;2022-12-07T14:48:15;6.23;;;5.70;;
9392;SDS011;4736;52.508;13.422;2022-12-07T14:51:38;6.17;;;5.60;;
9392;SDS011;4736;52.508;13.422;2022-12-07T14:55:02;5.77;;;5.30;;
9392;SDS011;4736;52.508;13.422;2022-12-07T14:58:07;6.10;;;5.50;;
9392;SDS011;4736;52.508;13.422;2022-12-07T15:01:15;6.03;;;5.33;;
9392;SDS011;4736;52.508;13.422;2022-12-07T15:04:19;6.10;;;4.80;;
9392;SDS011;4736;52.508;13.422;2022-12-07T15:07:22;5.87;;;5.33;;
9392;SDS011;4736;52.508;13.422;2022-12-07T15:10:27;5.23;;;4.83;;
9392;SDS011;4736;52.508;13.422;2022-12-07T15:13:33;12.37;;;5.20;;
9392;SDS011;4736;52.508;13.422;2022-12-07T15:16:53;5.60;;;4.87;;
9392;SDS011;4736;52.508;13.422;2022-12-07T15:20:17;5.70;;;5.20;;
9392;SDS011;4736;52.508;13.422;2022-12-07T15:23:20;6.73;;;4.90;;
9392;SDS011;4736;52.508;13.422;2022-12-07T15:26:23;5.23;;;4.80;;
9392;SDS011;4736;52.508;13.422;2022-12-07T15:29:26;6.03;;;5.23;;
9392;SDS011;4736;52.508;13.422;2022-12-07T15:32:29;5.50;;;5.00;;
9392;SDS011;4736;52.508;13.422;2022-12-07T15:35:37;6.47;;;5.33;;
9392;SDS011;4736;52.508;13.422;2022-12-07T15:38:41;6.63;;;5.03;;
9392;SDS011;4736;52.508;13.422;2022-12-07T15:42:03;9.77;;;4.87;;
9392;SDS011;4736;52.508;13.422;2022-12-07T15:45:07;6.87;;;5.47;;
9392;SDS011;4736;52.508;13.422;2022-12-07T15:48:10;6.23;;;4.93;;
9392;SDS011;4736;52.508;13.422;2022-12-07T15:51:31;6.37;;;5.80;;
9392;SDS011;4736;52.508;13.422;2022-12-07T15:54:34;8.27;;;5.20;;
9392;SDS011;4736;52.508;13.422;2022-12-07T15:57:37;5.80;;;5.17;;
9392;SDS011;4736;52.508;13.422;2022-12-07T16:00:41;9.53;;;5.27;;
9392;SDS011;4736;52.508;13.422;2022-12-07T16:03:45;6.27;;;5.67;;
9392;SDS011;4736;52.508;13.422;2022-12-07T16:06:49;5.40;;;4.93;;
9392;SDS011;4736;52.508;13.422;2022-12-07T16:09:53;6.97;;;5.03;;
9392;SDS011;4736;52.508;13.422;2022-12-07T16:12:56;5.93;;;5.43;;
9392;SDS011;4736;52.508;13.422;2022-12-07T16:16:01;5.67;;;5.10;;
9392;SDS011;4736;52.508;13.422;2022-12-07T16:19:05;9.60;;;5.10;;
9392;SDS011;4736;52.508;13.422;2022-12-07T16:22:10;5.60;;;4.73;;
9392;SDS011;4736;52.508;13.422;2022-12-07T16:25:13;7.77;;;5.50;;
9392;SDS011;4736;52.508;13.422;2022-12-07T16:28:16;4.70;;;4.43;;
9392;SDS011;4736;52.508;13.422;2022-12-07T16:31:20;5.17;;;4.67;;
9392;SDS011;4736;52.508;13.422;2022-12-07T16:34:24;6.07;;;5.47;;
9392;SDS011;4736;52.508;13.422;2022-12-07T16:37:29;5.70;;;5.17;;
9392;SDS011;4736;52.508;13.422;2022-12-07T16:40:32;7.93;;;4.70;;
9392;SDS011;4736;52.508;13.422;2022-12-07T16:43:35;6.00;;;5.30;;
9392;SDS011;4736;52.508;13.422;2022-12-07T16:46:38;10.90;;;5.07;;
9392;SDS011;4736;52.508;13.422;2022-12-07T16:49:42;7.90;;;5.27;;
9392;SDS011;4736;52.508;13.422;2022-12-07T16:52:46;6.30;;;5.23;;
9392;SDS011;4736;52.508;13.422;2022-12-07T16:55:49;5.17;;;4.87;;
9392;SDS011;4736;52.508;13.422;2022-12-07T16:58:53;6.03;;;5.53;;
9392;SDS011;4736;52.508;13.422;2022-12-07T17:01:56;5.97;;;5.50;;
9392;SDS011;4736;52.508;13.422;2022-12-07T17:04:59;5.90;;;5.43;;
9392;SDS011;4736;52.508;13.422;2022-12-07T17:08:04;5.57;;;5.07;;
9392;SDS011;4736;52.508;13.422;2022-12-07T17:11:11;6.33;;;5.73;;
9392;SDS011;4736;52.508;13.422;2022-12-07T17:14:15;5.30;;;5.10;;
9392;SDS011;4736;52.508;13.422;2022-12-07T17:17:40;7.03;;;5.70;;
9392;SDS011;4736;52.508;13.422;2022-12-07T17:20:43;6.27;;;5.67;;
9392;SDS011;4736;52.508;13.422;2022-12-07T17:23:48;8.37;;;5.13;;
9392;SDS011;4736;52.508;13.422;2022-12-07T17:26:51;5.77;;;5.30;;
9392;SDS011;4736;52.508;13.422;2022-12-07T17:29:54;5.67;;;5.17;;
9392;SDS011;4736;52.508;13.422;2022-12-07T17:32:57;8.33;;;5.20;;
9392;SDS011;4736;52.508;13.422;2022-12-07T17:36:00;7.67;;;5.60;;
9392;SDS011;4736;52.508;13.422;2022-12-07T17:39:14;5.40;;;5.10;;
9392;SDS011;4736;52.508;13.422;2022-12-07T17:42:18;5.33;;;4.93;;
9392;SDS011;4736;52.508;13.422;2022-12-07T17:45:40;6.43;;;5.27;;
9392;SDS011;4736;52.508;13.422;2022-12-07T17:48:43;4.90;;;4.60;;
9392;SDS011;4736;52.508;13.422;2022-12-07T17:51:46;9.50;;;5.77;;
9392;SDS011;4736;52.508;13.422;2022-12-07T17:55:08;9.80;;;6.07;;
9392;SDS011;4736;52.508;13.422;2022-12-07T17:58:11;6.10;;;5.80;;
9392;SDS011;4736;52.508;13.422;2022-12-07T18:01:14;6.57;;;4.83;;
9392;SDS011;4736;52.508;13.422;2022-12-07T18:04:23;6.23;;;5.63;;
9392;SDS011;4736;52.508;13.422;2022-12-07T18:07:26;6.50;;;5.93;;
9392;SDS011;4736;52.508;13.422;2022-12-07T18:10:31;7.57;;;6.03;;
9392;SDS011;4736;52.508;13.422;2022-12-07T18:13:34;6.70;;;5.27;;
9392;SDS011;4736;52.508;13.422;2022-12-07T18:16:37;6.60;;;5.60;;
9392;SDS011;4736;52.508;13.422;2022-12-07T18:19:40;5.70;;;5.40;;
9392;SDS011;4736;52.508;13.422;2022-12-07T18:22:42;8.37;;;7.47;;
9392;SDS011;4736;52.508;13.422;2022-12-07T18:25:47;9.70;;;6.10;;
9392;SDS011;4736;52.508;13.422;2022-12-07T18:28:51;6.77;;;6.37;;
9392;SDS011;4736;52.508;13.422;2022-12-07T18:31:54;7.10;;;5.60;;
9392;SDS011;4736;52.508;13.422;2022-12-07T18:34:57;9.50;;;6.87;;
9392;SDS011;4736;52.508;13.422;2022-12-07T18:38:01;5.83;;;5.37;;
9392;SDS011;4736;52.508;13.422;2022-12-07T18:41:07;8.47;;;5.73;;
9392;SDS011;4736;52.508;13.422;2022-12-07T18:44:11;7.30;;;5.77;;
9392;SDS011;4736;52.508;13.422;2022-12-07T18:47:14;6.90;;;6.50;;
9392;SDS011;4736;52.508;13.422;2022-12-07T18:50:17;6.80;;;6.10;;
9392;SDS011;4736;52.508;13.422;2022-12-07T18:53:20;8.00;;;6.50;;
9392;SDS011;4736;52.508;13.422;2022-12-07T18:56:25;8.83;;;6.13;;
9392;SDS011;4736;52.508;13.422;2022-12-07T18:59:28;6.70;;;6.17;;
9392;SDS011;4736;52.508;13.422;2022-12-07T19:02:50;8.90;;;6.33;;
9392;SDS011;4736;52.508;13.422;2022-12-07T19:05:54;6.40;;;6.00;;
9392;SDS011;4736;52.508;13.422;2022-12-07T19:08:58;6.53;;;5.93;;
9392;SDS011;4736;52.508;13.422;2022-12-07T19:12:02;8.77;;;6.00;;